Time;durP1;ratioP1;P1;durP2;ratioP2;P2;SDS_P1;SDS_P2;PMS_P1;PMS_P2;Temp;Humidity;BMP_temperature;BMP_pressure;BME280_temperature;BME280_humidity;BME280_pressure;Samples;Min_cycle;Max_cycle;Signal;HPM_P1;HPM_P2
2023/11/27 00:00:06;;;;;;;9.52;3.97;;;;;;;2.07;100.00;99942.88;5073159;28;20501;-43
2023/11/27 00:02:35;;;;;;;8.13;4.20;;;;;;;2.07;100.00;99937.63;5073434;28;20451;-42
2023/11/27 00:05:05;;;;;;;7.10;3.95;;;;;;;2.07;100.00;99942.88;5072718;28;20063;-43
2023/11/27 00:07:35;;;;;;;6.70;4.07;;;;;;;2.03;100.00;99945.66;5072661;28;20048;-44
2023/11/27 00:10:03;;;;;;;8.43;4.30;;;;;;;1.99;100.00;99943.13;5073246;28;20052;-42
2023/11/27 00:12:31;;;;;;;8.70;4.53;;;;;;;2.00;100.00;99942.22;5072431;28;20052;-43
2023/11/27 00:15:00;;;;;;;6.60;4.00;;;;;;;2.02;100.00;99950.03;5072693;28;20048;-46
2023/11/27 00:17:29;;;;;;;8.40;4.50;;;;;;;2.06;100.00;99949.06;5073204;28;20087;-42
2023/11/27 00:19:57;;;;;;;7.35;4.07;;;;;;;2.08;100.00;99954.28;5072906;28;20413;-42
2023/11/27 00:22:28;;;;;;;7.97;4.40;;;;;;;2.01;100.00;99945.69;5072492;28;20048;-43
2023/11/27 00:24:57;;;;;;;6.72;4.00;;;;;;;1.92;100.00;99944.19;5071960;28;20057;-42
2023/11/27 00:27:27;;;;;;;6.57;4.18;;;;;;;1.87;100.00;99950.53;5072567;28;20063;-42
2023/11/27 00:29:55;;;;;;;6.43;3.92;;;;;;;1.97;100.00;99941.44;5072223;28;20522;-43
2023/11/27 00:32:23;;;;;;;6.30;3.78;;;;;;;1.99;100.00;99939.63;5072108;28;20114;-43
2023/11/27 00:34:52;;;;;;;7.22;4.10;;;;;;;2.00;100.00;99941.34;5072188;28;20124;-42
2023/11/27 00:37:20;;;;;;;6.82;3.75;;;;;;;1.96;100.00;99940.59;5072268;28;20056;-43
2023/11/27 00:39:50;;;;;;;7.18;4.18;;;;;;;1.97;100.00;99941.44;5071964;28;20153;-42
2023/11/27 00:42:20;;;;;;;7.85;4.20;;;;;;;1.98;100.00;99943.16;5072425;28;20052;-42
2023/11/27 00:44:49;;;;;;;6.18;3.90;;;;;;;1.95;100.00;99938.00;5071915;28;20103;-43
2023/11/27 00:47:18;;;;;;;7.00;3.97;;;;;;;2.05;100.00;99944.72;5072001;28;20045;-43
2023/11/27 00:49:46;;;;;;;6.65;3.90;;;;;;;2.05;100.00;99939.44;5072183;28;20486;-42
2023/11/27 00:52:14;;;;;;;9.13;4.20;;;;;;;2.03;100.00;99936.00;5072021;28;20386;-42
2023/11/27 00:54:43;;;;;;;8.00;4.25;;;;;;;2.08;100.00;99939.34;5072725;28;20383;-43
2023/11/27 00:57:11;;;;;;;7.47;4.22;;;;;;;2.07;100.00;99936.78;5071906;28;20052;-44
2023/11/27 00:59:41;;;;;;;7.47;4.70;;;;;;;2.01;100.00;99933.41;5071898;28;20044;-43
2023/11/27 01:02:10;;;;;;;6.03;4.00;;;;;;;2.08;100.00;99930.59;5071994;28;20048;-45
2023/11/27 01:04:39;;;;;;;7.95;4.60;;;;;;;1.98;100.00;99920.34;5072036;28;20090;-42
2023/11/27 01:07:09;;;;;;;7.75;4.45;;;;;;;1.94;100.00;99933.66;5071857;28;20048;-42
2023/11/27 01:09:38;;;;;;;7.68;4.47;;;;;;;1.81;100.00;99929.66;5072188;28;20049;-42
2023/11/27 01:12:07;;;;;;;7.68;4.43;;;;;;;1.99;100.00;99932.59;5071759;28;20139;-43
2023/11/27 01:14:35;;;;;;;8.68;4.70;;;;;;;1.78;100.00;99919.22;5072423;28;20151;-45
2023/11/27 01:17:05;;;;;;;8.88;5.38;;;;;;;1.87;100.00;99918.97;5071762;28;20040;-43
2023/11/27 01:19:34;;;;;;;8.43;4.78;;;;;;;1.75;100.00;99927.22;5071577;28;20051;-41
2023/11/27 01:22:03;;;;;;;10.00;4.70;;;;;;;1.88;100.00;99920.69;5071935;28;20102;-43
2023/11/27 01:24:31;;;;;;;7.47;4.50;;;;;;;1.93;100.00;99924.00;5071960;28;20056;-47
2023/11/27 01:27:00;;;;;;;8.80;4.20;;;;;;;1.83;100.00;99918.16;5071985;28;20092;-42
2023/11/27 01:29:28;;;;;;;9.32;4.30;;;;;;;1.91;100.00;99921.44;5072171;28;20048;-44
2023/11/27 01:31:57;;;;;;;7.22;4.57;;;;;;;1.93;100.00;99924.00;5070704;28;20132;-42
2023/11/27 01:34:26;;;;;;;8.00;4.32;;;;;;;1.95;100.00;99925.72;5072493;28;20131;-43
2023/11/27 01:36:55;;;;;;;8.00;4.70;;;;;;;2.03;100.00;99920.22;5075160;28;20496;-43
2023/11/27 01:39:23;;;;;;;8.23;4.88;;;;;;;2.00;100.00;99917.66;5075078;28;20078;-42
2023/11/27 01:41:52;;;;;;;7.50;4.40;;;;;;;1.95;100.00;99909.06;5076345;28;20041;-43
2023/11/27 01:44:21;;;;;;;8.75;5.05;;;;;;;2.01;100.00;99908.88;5075765;28;20194;-42
2023/11/27 01:46:49;;;;;;;8.18;4.68;;;;;;;1.97;100.00;99910.75;5075990;28;20101;-43
2023/11/27 01:49:20;;;;;;;7.63;4.68;;;;;;;2.09;100.00;99906.00;5075614;28;20125;-44
2023/11/27 01:51:51;;;;;;;9.63;4.70;;;;;;;2.12;100.00;99906.75;5075487;28;20059;-45
2023/11/27 01:54:20;;;;;;;8.70;5.05;;;;;;;2.07;100.00;99898.16;5075789;28;20417;-41
2023/11/27 01:56:50;;;;;;;8.30;5.10;;;;;;;2.18;100.00;99898.69;5075506;28;20138;-42
2023/11/27 01:59:20;;;;;;;8.82;4.68;;;;;;;2.16;100.00;99897.03;5075129;28;20098;-43
2023/11/27 02:01:49;;;;;;;8.27;4.85;;;;;;;2.20;100.00;99886.34;5075516;28;20135;-47
2023/11/27 02:04:17;;;;;;;8.23;5.40;;;;;;;2.21;100.00;99888.06;5075154;28;20746;-44
2023/11/27 02:06:46;;;;;;;9.05;5.20;;;;;;;2.25;100.00;99880.94;5075071;28;20481;-43
2023/11/27 02:09:16;;;;;;;8.13;4.68;;;;;;;2.24;100.00;99885.34;5075062;28;20049;-42
2023/11/27 02:11:47;;;;;;;8.45;4.65;;;;;;;2.32;100.00;99878.94;5075238;28;20076;-44
2023/11/27 02:14:16;;;;;;;8.70;5.20;;;;;;;2.44;100.00;99886.47;5075105;28;20088;-42
2023/11/27 02:16:46;;;;;;;7.80;4.80;;;;;;;2.40;100.00;99882.19;5074492;28;20056;-42
2023/11/27 02:19:18;;;;;;;9.73;5.22;;;;;;;2.29;100.00;99886.03;5075382;28;20102;-41
2023/11/27 02:21:46;;;;;;;7.45;4.65;;;;;;;2.30;100.00;99881.63;5075080;28;20045;-43
2023/11/27 02:24:16;;;;;;;8.40;5.13;;;;;;;2.39;100.00;99880.47;5075011;28;20139;-45
2023/11/27 02:26:44;;;;;;;8.57;4.90;;;;;;;2.48;100.00;99869.66;5075447;28;20045;-43
2023/11/27 02:29:13;;;;;;;9.10;5.22;;;;;;;2.51;100.00;99869.53;5074804;28;20122;-42
2023/11/27 02:31:41;;;;;;;7.82;4.88;;;;;;;2.54;100.00;99867.69;5075103;28;20048;-41
2023/11/27 02:34:10;;;;;;;7.40;4.30;;;;;;;2.62;100.00;99863.94;5074745;28;20126;-43
2023/11/27 02:36:39;;;;;;;8.73;4.47;;;;;;;2.66;100.00;99863.78;5074585;28;20131;-42
2023/11/27 02:39:08;;;;;;;8.45;4.40;;;;;;;2.67;100.00;99854.94;5074684;28;20405;-43
2023/11/27 02:41:38;;;;;;;7.40;4.00;;;;;;;2.71;100.00;99861.84;5074459;28;20412;-42
2023/11/27 02:44:06;;;;;;;7.40;4.05;;;;;;;2.78;100.00;99868.59;5074854;28;20059;-43
2023/11/27 02:46:35;;;;;;;8.57;3.90;;;;;;;2.76;100.00;99869.59;5073932;28;20417;-42
2023/11/27 02:49:05;;;;;;;6.80;3.92;;;;;;;2.84;100.00;99864.91;5074529;28;20047;-42
2023/11/27 02:51:39;;;;;;;6.95;3.63;;;;;;;2.83;100.00;99865.84;5074695;28;20049;-42
2023/11/27 02:54:08;;;;;;;8.50;3.78;;;;;;;2.80;100.00;99852.78;5074680;28;20442;-42
2023/11/27 02:56:38;;;;;;;7.53;4.07;;;;;;;2.82;100.00;99853.56;5074049;28;20084;-42
2023/11/27 02:59:07;;;;;;;7.40;3.92;;;;;;;2.86;100.00;99845.50;5074078;28;20090;-43
2023/11/27 03:01:35;;;;;;;6.63;3.90;;;;;;;2.88;100.00;99842.81;5074309;28;20049;-42
2023/11/27 03:04:04;;;;;;;9.15;4.30;;;;;;;2.94;100.00;99841.75;5074416;28;20040;-43
2023/11/27 03:06:32;;;;;;;8.40;4.50;;;;;;;2.87;100.00;99841.94;5073759;28;20178;-44
2023/11/27 03:09:00;;;;;;;7.95;4.25;;;;;;;2.92;100.00;99838.31;5073669;28;20045;-44
2023/11/27 03:11:28;;;;;;;7.18;4.05;;;;;;;2.99;100.00;99831.88;5073961;28;20117;-43
2023/11/27 03:13:58;;;;;;;7.97;4.20;;;;;;;3.04;100.00;99843.13;5073780;28;20064;-44
2023/11/27 03:16:28;;;;;;;8.73;4.00;;;;;;;3.10;100.00;99842.94;5073921;28;20068;-43
2023/11/27 03:18:56;;;;;;;6.82;3.70;;;;;;;3.16;100.00;99842.69;5073723;28;20071;-42
2023/11/27 03:21:27;;;;;;;7.63;3.92;;;;;;;3.18;100.00;99830.31;5073418;28;20515;-43
2023/11/27 03:23:55;;;;;;;6.47;3.80;;;;;;;3.16;100.00;99829.50;5073820;28;20052;-42
2023/11/27 03:26:24;;;;;;;6.75;3.85;;;;;;;3.15;100.00;99822.53;5074081;28;20447;-44
2023/11/27 03:28:52;;;;;;;6.55;3.67;;;;;;;3.07;100.00;99819.28;5073725;28;20051;-42
2023/11/27 03:31:21;;;;;;;6.82;3.88;;;;;;;3.00;100.00;99816.03;5073434;28;20045;-41
2023/11/27 03:33:51;;;;;;;7.57;4.35;;;;;;;2.96;100.00;99818.81;5073245;28;20496;-43
2023/11/27 03:36:19;;;;;;;7.05;4.07;;;;;;;2.88;100.00;99817.31;5073422;28;20445;-41
2023/11/27 03:38:48;;;;;;;6.82;3.83;;;;;;;2.87;100.00;99818.25;5073635;28;20052;-43
2023/11/27 03:41:20;;;;;;;7.13;3.95;;;;;;;2.97;100.00;99812.66;5073691;28;20059;-42
2023/11/27 03:43:49;;;;;;;8.23;4.20;;;;;;;2.81;100.00;99810.56;5073655;28;20092;-44
2023/11/27 03:46:17;;;;;;;7.47;3.78;;;;;;;2.92;100.00;99809.34;5073010;28;20083;-43
2023/11/27 03:48:47;;;;;;;6.05;3.50;;;;;;;2.96;100.00;99806.50;5072934;28;20052;-45
2023/11/27 03:51:16;;;;;;;8.40;4.05;;;;;;;2.99;100.00;99795.00;5073494;28;20072;-43
2023/11/27 03:53:44;;;;;;;6.50;3.95;;;;;;;2.96;100.00;99785.44;5073622;28;20197;-45
2023/11/27 03:56:12;;;;;;;6.97;3.70;;;;;;;3.00;100.00;99783.56;5073582;28;20049;-43
2023/11/27 03:58:40;;;;;;;5.88;3.58;;;;;;;2.97;100.00;99783.66;5072340;28;20049;-43
2023/11/27 04:01:11;;;;;;;7.10;3.97;;;;;;;2.91;100.00;99783.91;5072818;28;20140;-41
2023/11/27 04:03:42;;;;;;;6.32;3.70;;;;;;;2.77;100.00;99777.34;5072709;28;20118;-43
2023/11/27 04:06:23;;;;;;;7.32;4.28;;;;;;;2.71;100.00;99776.72;5073066;28;20052;-42
2023/11/27 04:08:51;;;;;;;6.65;3.90;;;;;;;2.84;100.00;99781.47;5072742;28;20048;-42
2023/11/27 04:11:20;;;;;;;5.85;3.67;;;;;;;2.94;100.00;99779.38;5072179;28;20479;-44
2023/11/27 04:13:48;;;;;;;6.85;4.28;;;;;;;2.95;100.00;99775.81;5072427;28;20098;-43
2023/11/27 04:16:17;;;;;;;5.60;3.55;;;;;;;2.99;100.00;99776.56;5072736;28;20052;-44
2023/11/27 04:18:45;;;;;;;6.10;3.85;;;;;;;2.98;100.00;99769.56;5072614;28;20131;-42
2023/11/27 04:21:18;;;;;;;7.25;4.00;;;;;;;3.02;100.00;99776.47;5072257;28;20493;-46
2023/11/27 04:23:47;;;;;;;7.18;4.20;;;;;;;2.83;100.00;99763.97;5072088;28;20060;-45
2023/11/27 04:26:21;;;;;;;6.10;3.95;;;;;;;2.73;100.00;99757.31;5072467;28;20063;-42
2023/11/27 04:28:49;;;;;;;7.10;3.72;;;;;;;2.71;100.00;99745.97;5072566;28;20052;-43
2023/11/27 04:31:18;;;;;;;7.40;3.97;;;;;;;2.70;100.00;99741.63;5072602;28;20049;-42
2023/11/27 04:33:47;;;;;;;7.40;4.40;;;;;;;2.67;100.00;99735.59;5072196;28;20049;-42
2023/11/27 04:36:19;;;;;;;7.32;4.30;;;;;;;2.75;100.00;99744.94;5072156;28;20055;-42
2023/11/27 04:38:48;;;;;;;7.22;4.07;;;;;;;2.73;100.00;99751.19;5072012;28;20044;-44
2023/11/27 04:41:16;;;;;;;6.18;4.05;;;;;;;2.62;100.00;99756.84;5071917;28;20398;-43
2023/11/27 04:43:45;;;;;;;6.57;3.60;;;;;;;2.66;100.00;99750.53;5072013;28;20143;-43
2023/11/27 04:46:13;;;;;;;6.90;4.30;;;;;;;2.80;100.00;99745.66;5071949;28;20059;-43
2023/11/27 04:48:42;;;;;;;7.32;4.32;;;;;;;2.68;100.00;99751.34;5072227;28;20049;-45
2023/11/27 04:51:10;;;;;;;8.50;4.20;;;;;;;2.81;100.00;99752.63;5071960;28;20513;-44
2023/11/27 04:53:39;;;;;;;6.65;4.00;;;;;;;2.88;100.00;99756.72;5071683;28;20079;-42
2023/11/27 04:56:09;;;;;;;6.95;4.55;;;;;;;2.80;100.00;99747.41;5071831;28;20102;-42
2023/11/27 04:58:37;;;;;;;5.55;3.90;;;;;;;2.90;100.00;99755.84;5072257;28;20067;-42
2023/11/27 05:01:05;;;;;;;7.60;4.13;;;;;;;2.90;100.00;99753.22;5071882;28;20048;-43
2023/11/27 05:03:34;;;;;;;6.97;4.15;;;;;;;2.81;100.00;99757.03;5071935;28;20044;-43
2023/11/27 05:06:03;;;;;;;6.88;4.20;;;;;;;2.93;100.00;99756.59;5072180;28;20080;-44
2023/11/27 05:08:31;;;;;;;6.53;3.92;;;;;;;2.92;100.00;99754.88;5072756;28;20045;-43
2023/11/27 05:11:01;;;;;;;9.05;4.25;;;;;;;2.99;100.00;99752.84;5072014;28;20080;-42
2023/11/27 05:13:29;;;;;;;5.97;3.67;;;;;;;3.07;100.00;99750.78;5072012;28;20551;-45
2023/11/27 05:15:58;;;;;;;6.22;3.65;;;;;;;3.03;100.00;99751.81;5071868;28;20051;-43
2023/11/27 05:18:26;;;;;;;6.85;3.78;;;;;;;3.06;100.00;99752.56;5071868;28;20358;-41
2023/11/27 05:20:55;;;;;;;6.75;4.05;;;;;;;3.17;100.00;99754.78;5071132;28;20059;-42
2023/11/27 05:23:23;;;;;;;7.75;4.00;;;;;;;3.16;100.00;99753.94;5072123;28;20110;-44
2023/11/27 05:25:52;;;;;;;7.78;4.00;;;;;;;3.22;100.00;99767.81;5071721;28;20045;-43
2023/11/27 05:28:23;;;;;;;6.30;3.85;;;;;;;3.25;100.00;99768.53;5071971;28;20510;-42
2023/11/27 05:30:52;;;;;;;7.35;4.07;;;;;;;3.27;100.00;99764.06;5071919;28;20075;-43
2023/11/27 05:33:20;;;;;;;8.02;3.95;;;;;;;3.27;100.00;99765.84;5071689;28;20409;-42
2023/11/27 05:35:49;;;;;;;7.43;3.85;;;;;;;3.29;100.00;99767.53;5071845;28;20075;-43
2023/11/27 05:38:18;;;;;;;7.80;4.10;;;;;;;3.24;100.00;99751.00;5072070;28;20509;-42
2023/11/27 05:40:50;;;;;;;6.55;4.10;;;;;;;3.12;100.00;99762.88;5072294;28;20148;-42
2023/11/27 05:43:19;;;;;;;7.32;3.78;;;;;;;3.23;100.00;99773.03;5071209;28;20048;-41
2023/11/27 05:45:49;;;;;;;6.95;4.18;;;;;;;3.14;100.00;99762.81;5071441;28;20132;-43
2023/11/27 05:48:18;;;;;;;9.73;4.47;;;;;;;3.07;100.00;99759.56;5072094;28;20049;-42
2023/11/27 05:50:48;;;;;;;7.35;4.25;;;;;;;3.10;100.00;99753.31;5072173;28;20099;-42
2023/11/27 05:53:17;;;;;;;7.40;4.80;;;;;;;3.20;100.00;99764.38;5071650;28;20084;-45
2023/11/27 05:55:45;;;;;;;9.07;4.40;;;;;;;3.17;100.00;99754.78;5071409;28;20049;-42
2023/11/27 05:58:14;;;;;;;7.47;4.20;;;;;;;3.19;100.00;99763.53;5071668;28;20083;-44
2023/11/27 06:00:43;;;;;;;7.28;4.53;;;;;;;3.27;100.00;99756.16;5071645;28;20110;-42
2023/11/27 06:03:13;;;;;;;8.52;4.30;;;;;;;3.37;100.00;99746.97;5071649;28;20052;-44
2023/11/27 06:05:42;;;;;;;7.93;4.10;;;;;;;3.40;100.00;99756.56;5071493;28;20041;-43
2023/11/27 06:08:11;;;;;;;7.18;4.30;;;;;;;3.40;100.00;99760.06;5071323;28;20079;-43
2023/11/27 06:10:39;;;;;;;8.23;4.55;;;;;;;3.50;100.00;99757.94;5071058;28;20147;-42
2023/11/27 06:13:07;;;;;;;8.90;4.70;;;;;;;3.49;100.00;99765.91;5071252;28;20067;-43
2023/11/27 06:15:46;;;;;;;9.40;4.63;;;;;;;3.53;100.00;99759.56;5070933;28;20041;-42
2023/11/27 06:18:16;;;;;;;9.00;4.40;;;;;;;3.59;100.00;99761.97;5071563;28;20098;-44
2023/11/27 06:20:44;;;;;;;7.22;3.72;;;;;;;3.61;100.00;99760.13;5070929;28;20044;-43
2023/11/27 06:23:13;;;;;;;9.68;4.28;;;;;;;3.70;100.00;99772.97;5073507;28;20048;-42
2023/11/27 06:25:42;;;;;;;7.35;4.13;;;;;;;3.70;100.00;99775.59;5074471;28;20052;-42
2023/11/27 06:28:13;;;;;;;6.93;4.00;;;;;;;3.73;100.00;99776.31;5074681;28;20048;-42
2023/11/27 06:30:41;;;;;;;12.18;4.25;;;;;;;3.77;100.00;99777.09;5074377;28;20499;-42
2023/11/27 06:33:10;;;;;;;7.47;4.10;;;;;;;3.78;100.00;99786.72;5074472;28;20181;-43
2023/11/27 06:35:39;;;;;;;9.75;3.97;;;;;;;3.83;100.00;99773.31;5073893;28;20460;-44
2023/11/27 06:38:07;;;;;;;7.00;4.05;;;;;;;3.79;100.00;99769.09;5074014;28;20445;-42
2023/11/27 06:40:36;;;;;;;6.65;3.83;;;;;;;3.77;100.00;99769.16;5073807;28;20056;-42
2023/11/27 06:43:15;;;;;;;6.68;3.83;;;;;;;3.74;100.00;99766.63;5070577;28;20056;-48
2023/11/27 06:45:44;;;;;;;7.72;3.90;;;;;;;3.89;100.00;99767.81;5073465;28;20044;-41
2023/11/27 06:48:12;;;;;;;6.07;3.63;;;;;;;3.94;100.00;99766.69;5073187;28;20044;-42
2023/11/27 06:50:42;;;;;;;6.43;3.75;;;;;;;3.97;100.00;99761.31;5072872;28;20049;-42
2023/11/27 06:53:10;;;;;;;7.38;4.30;;;;;;;3.84;100.00;99759.22;5072098;28;20048;-41
2023/11/27 06:55:38;;;;;;;7.10;3.88;;;;;;;3.85;100.00;99753.88;5072648;28;20477;-41
2023/11/27 06:58:07;;;;;;;6.00;3.50;;;;;;;3.79;100.00;99748.84;5073067;28;20049;-43
2023/11/27 07:00:37;;;;;;;7.03;3.60;;;;;;;3.89;100.00;99757.25;5073257;28;20055;-43
2023/11/27 07:03:07;;;;;;;7.28;4.32;;;;;;;3.94;100.00;99756.13;5071161;28;20060;-41
2023/11/27 07:05:36;;;;;;;7.82;4.40;;;;;;;4.05;100.00;99749.56;5072808;28;20052;-42
2023/11/27 07:08:06;;;;;;;6.47;3.70;;;;;;;4.08;100.00;99755.59;5073251;28;20044;-42
2023/11/27 07:10:35;;;;;;;7.22;3.95;;;;;;;4.07;100.00;99756.50;5071455;28;20127;-41
2023/11/27 07:13:03;;;;;;;6.18;3.70;;;;;;;4.12;100.00;99749.25;5071941;28;20045;-41
2023/11/27 07:15:31;;;;;;;7.88;3.95;;;;;;;4.15;100.00;99743.84;5072644;28;20135;-42
2023/11/27 07:18:01;;;;;;;6.47;4.07;;;;;;;4.17;100.00;99741.16;5072950;28;20524;-44
2023/11/27 07:20:45;;;;;;;7.82;3.88;;;;;;;4.20;100.00;99739.22;5072337;28;20055;-44
2023/11/27 07:23:16;;;;;;;7.88;4.28;;;;;;;4.23;100.00;99743.50;5071142;28;20138;-44
2023/11/27 07:25:44;;;;;;;7.75;3.92;;;;;;;4.25;100.00;99739.91;5072005;28;20184;-42
2023/11/27 07:28:13;;;;;;;7.15;3.55;;;;;;;4.27;100.00;99739.84;5072173;28;20040;-42
2023/11/27 07:30:43;;;;;;;6.60;3.97;;;;;;;4.34;100.00;99735.97;5072580;28;20044;-42
2023/11/27 07:33:11;;;;;;;6.50;3.88;;;;;;;4.34;100.00;99730.69;5070766;28;20446;-42
2023/11/27 07:35:40;;;;;;;7.38;4.10;;;;;;;4.40;100.00;99725.16;5072173;28;20109;-41
2023/11/27 07:38:08;;;;;;;8.05;3.90;;;;;;;4.38;100.00;99732.31;5072768;28;20052;-44
2023/11/27 07:40:38;;;;;;;6.95;4.20;;;;;;;4.42;100.00;99731.22;5064869;28;20045;-42
2023/11/27 07:43:10;;;;;;;6.90;4.10;;;;;;;4.37;100.00;99735.88;5071019;28;20048;-41
2023/11/27 07:45:39;;;;;;;;;;;;;;;4.47;100.00;99737.19;5072878;28;20052;-41
2023/11/27 07:48:08;;;;;;;7.20;3.70;;;;;;;4.51;100.00;99745.81;5072693;28;19927;-43
2023/11/27 07:50:37;;;;;;;7.28;4.10;;;;;;;4.58;100.00;99734.06;5073366;28;20139;-44
2023/11/27 07:53:07;;;;;;;7.97;4.35;;;;;;;4.65;100.00;99735.53;5063557;28;20045;-43
2023/11/27 07:55:36;;;;;;;6.95;3.95;;;;;;;4.71;100.00;99737.88;5072695;28;20051;-41
2023/11/27 07:58:06;;;;;;;7.80;4.55;;;;;;;4.76;100.00;99732.41;5071660;28;20078;-42
2023/11/27 08:00:35;;;;;;;8.45;4.25;;;;;;;4.74;100.00;99739.56;5070340;28;20405;-41
2023/11/27 08:03:04;;;;;;;8.45;4.50;;;;;;;4.69;100.00;99736.25;5070914;28;20052;-44
2023/11/27 08:05:32;;;;;;;9.18;4.10;;;;;;;4.77;100.00;99723.56;5073278;28;20052;-41
2023/11/27 08:08:00;;;;;;;7.03;4.22;;;;;;;4.81;100.00;99731.25;5072164;28;20079;-42
2023/11/27 08:10:29;;;;;;;7.10;4.57;;;;;;;4.87;100.00;99728.34;5071963;28;20079;-42
2023/11/27 08:12:57;;;;;;;6.68;4.32;;;;;;;4.91;100.00;99736.13;5071176;28;20135;-41
2023/11/27 08:15:27;;;;;;;7.35;4.55;;;;;;;4.81;100.00;99740.97;5071320;28;20146;-47
2023/11/27 08:17:56;;;;;;;7.25;4.53;;;;;;;4.85;100.00;99740.78;5071598;28;20132;-43
2023/11/27 08:20:28;;;;;;;8.77;4.53;;;;;;;4.91;100.00;99741.41;5071491;28;20135;-42
2023/11/27 08:22:58;;;;;;;8.18;4.60;;;;;;;4.69;100.00;99736.25;5069853;28;20056;-41
2023/11/27 08:25:26;;;;;;;6.93;3.95;;;;;;;4.54;100.00;99736.00;5071427;28;20551;-43
2023/11/27 08:27:56;;;;;;;8.77;4.70;;;;;;;4.46;100.00;99734.63;5071515;28;20538;-42
2023/11/27 08:30:32;;;;;;;7.85;4.43;;;;;;;4.31;100.00;99738.75;5071423;28;20044;-41
2023/11/27 08:33:01;;;;;;;6.72;3.97;;;;;;;4.34;100.00;99741.25;5070253;28;20128;-45
2023/11/27 08:35:33;;;;;;;7.47;4.10;;;;;;;4.34;100.00;99743.91;5070946;28;20075;-42
2023/11/27 08:38:02;;;;;;;9.00;4.72;;;;;;;4.31;100.00;99749.31;5071375;28;20450;-43
2023/11/27 08:40:31;;;;;;;56.78;25.27;;;;;;;4.39;100.00;99738.44;5071250;28;20094;-43
2023/11/27 08:43:01;;;;;;;20.58;10.73;;;;;;;4.49;100.00;99740.63;5061523;28;20052;-41
2023/11/27 08:45:30;;;;;;;12.35;5.53;;;;;;;4.43;100.00;99740.00;5069353;28;20048;-42
2023/11/27 08:48:00;;;;;;;8.05;4.75;;;;;;;4.37;100.00;99732.38;5070346;28;20501;-41
2023/11/27 08:50:35;;;;;;;7.38;4.38;;;;;;;4.44;100.00;99739.97;5070729;28;20048;-41
2023/11/27 08:53:07;;;;;;;11.60;4.60;;;;;;;4.31;100.00;99733.47;5069940;28;20044;-41
2023/11/27 08:55:36;;;;;;;8.57;4.97;;;;;;;4.42;100.00;99735.66;5071647;28;20280;-42
2023/11/27 08:58:06;;;;;;;11.23;5.65;;;;;;;4.36;100.00;99731.53;5071191;28;20581;-41
2023/11/27 09:00:36;;;;;;;7.65;5.13;;;;;;;4.37;100.00;99735.88;5070438;28;20481;-41
2023/11/27 09:03:05;;;;;;;7.88;4.70;;;;;;;4.28;100.00;99736.25;5069808;28;20048;-41
2023/11/27 09:05:33;;;;;;;8.77;4.38;;;;;;;4.34;100.00;99727.19;5070891;28;20106;-41
2023/11/27 09:08:05;;;;;;;7.15;4.70;;;;;;;4.40;100.00;99730.44;5071142;28;20465;-41
2023/11/27 09:10:36;;;;;;;9.95;5.53;;;;;;;4.38;100.00;99729.66;5071307;28;20064;-41
2023/11/27 09:13:05;;;;;;;8.75;4.93;;;;;;;4.37;100.00;99725.31;5069969;28;20059;-40
2023/11/27 09:15:36;;;;;;;11.43;5.00;;;;;;;4.37;100.00;99720.03;5071002;28;20044;-41
2023/11/27 09:18:04;;;;;;;10.57;5.00;;;;;;;4.46;100.00;99724.06;5070781;28;20405;-43
2023/11/27 09:20:32;;;;;;;10.52;4.93;;;;;;;4.49;100.00;99724.78;5071036;28;20076;-41
2023/11/27 09:23:01;;;;;;;9.55;5.50;;;;;;;4.33;100.00;99726.34;5068885;28;20051;-49
2023/11/27 09:25:29;;;;;;;8.93;5.32;;;;;;;4.35;100.00;99721.88;5069928;28;20056;-42
2023/11/27 09:27:58;;;;;;;10.95;5.45;;;;;;;4.41;100.00;99721.59;5070848;28;20131;-43
2023/11/27 09:30:27;;;;;;;10.48;6.13;;;;;;;4.37;100.00;99717.38;5069891;28;20040;-41
2023/11/27 09:32:57;;;;;;;16.67;8.20;;;;;;;4.49;100.00;99711.56;5069057;28;20144;-42
2023/11/27 09:35:25;;;;;;;15.10;7.50;;;;;;;4.54;100.00;99706.09;5070602;28;20071;-43
2023/11/27 09:37:53;;;;;;;10.00;5.75;;;;;;;4.58;100.00;99708.53;5070385;28;20114;-41
2023/11/27 09:40:22;;;;;;;8.52;4.93;;;;;;;4.66;100.00;99709.97;5070406;28;20056;-40
2023/11/27 09:42:53;;;;;;;7.78;5.03;;;;;;;4.48;100.00;99696.66;5070521;28;20044;-43
2023/11/27 09:45:22;;;;;;;7.30;4.60;;;;;;;4.52;100.00;99700.84;5071099;28;20048;-42
2023/11/27 09:47:50;;;;;;;8.75;5.55;;;;;;;4.55;100.00;99695.47;5071290;28;20146;-42
2023/11/27 09:50:24;;;;;;;8.02;4.68;;;;;;;4.98;100.00;99695.28;5072016;28;20050;-44
2023/11/27 09:53:00;;;;;;;10.20;5.55;;;;;;;5.06;100.00;99687.88;5071267;28;20053;-42
2023/11/27 09:55:34;;;;;;;8.13;4.60;;;;;;;5.27;100.00;99683.34;5072018;28;20131;-41
2023/11/27 09:58:05;;;;;;;9.23;4.70;;;;;;;5.36;100.00;99685.56;5074458;28;20094;-42
2023/11/27 10:00:33;;;;;;;9.35;4.43;;;;;;;5.45;100.00;99680.69;5075191;28;20044;-43
2023/11/27 10:03:03;;;;;;;8.68;4.65;;;;;;;5.55;100.00;99686.41;5074777;28;20450;-43
2023/11/27 10:05:33;;;;;;;8.93;4.68;;;;;;;5.57;100.00;99673.94;5074820;28;20422;-43
2023/11/27 10:08:03;;;;;;;7.15;4.30;;;;;;;5.58;100.00;99667.72;5074854;28;20048;-42
2023/11/27 10:10:32;;;;;;;6.78;4.03;;;;;;;5.67;100.00;99669.91;5074894;28;20053;-42
2023/11/27 10:13:04;;;;;;;6.35;3.78;;;;;;;5.74;100.00;99666.03;5074639;28;20453;-42
2023/11/27 10:15:48;;;;;;;7.57;4.28;;;;;;;5.84;100.00;99655.84;5074628;28;20075;-41
2023/11/27 10:18:19;;;;;;;7.68;4.40;;;;;;;5.90;100.00;99660.00;5074922;28;20053;-43
2023/11/27 10:20:52;;;;;;;7.38;4.50;;;;;;;5.91;100.00;99664.38;5074552;28;20485;-42
2023/11/27 10:23:21;;;;;;;7.57;3.95;;;;;;;6.05;100.00;99653.94;5074496;28;20045;-43
2023/11/27 10:25:56;;;;;;;13.32;3.70;;;;;;;6.15;100.00;99654.31;5074347;28;20053;-42
2023/11/27 10:28:26;;;;;;;6.65;3.30;;;;;;;6.20;100.00;99650.50;5074711;28;20512;-44
2023/11/27 10:30:55;;;;;;;6.82;3.55;;;;;;;6.25;100.00;99648.47;5074858;28;20064;-43
2023/11/27 10:33:23;;;;;;;7.95;3.92;;;;;;;6.26;100.00;99654.63;5074585;28;20136;-44
2023/11/27 10:35:56;;;;;;;9.50;3.85;;;;;;;6.36;100.00;99647.03;5074510;28;20055;-43
2023/11/27 10:38:25;;;;;;;7.25;3.78;;;;;;;6.25;100.00;99644.97;5074450;28;20073;-41
2023/11/27 10:40:54;;;;;;;12.95;3.30;;;;;;;6.16;100.00;99638.34;5074497;28;20512;-43
2023/11/27 10:43:24;;;;;;;11.85;3.40;;;;;;;6.16;100.00;99638.34;5074251;28;20075;-41
2023/11/27 10:45:57;;;;;;;5.78;3.00;;;;;;;5.96;100.00;99635.88;5074370;28;20060;-42
2023/11/27 10:48:28;;;;;;;6.15;3.88;;;;;;;6.03;100.00;99634.63;5073981;28;20511;-42
2023/11/27 10:51:13;;;;;;;5.35;3.10;;;;;;;6.08;100.00;99632.63;5073991;28;20052;-43
2023/11/27 10:53:45;;;;;;;5.82;3.13;;;;;;;6.06;100.00;99637.09;5074152;28;20101;-43
2023/11/27 10:56:16;;;;;;;4.35;2.45;;;;;;;5.90;100.00;99639.69;5074287;28;20075;-41
2023/11/27 10:58:46;;;;;;;5.50;2.97;;;;;;;5.84;100.00;99639.13;5074340;28;20052;-44
2023/11/27 11:01:19;;;;;;;5.50;2.92;;;;;;;5.97;100.00;99634.94;5073867;28;20501;-43
2023/11/27 11:03:54;;;;;;;5.75;3.10;;;;;;;5.95;100.00;99637.66;5073966;28;20674;-42
2023/11/27 11:06:26;;;;;;;5.45;3.22;;;;;;;6.03;100.00;99629.34;5073907;28;20152;-42
2023/11/27 11:08:57;;;;;;;4.75;2.95;;;;;;;6.05;100.00;99626.59;5073753;28;20486;-42
2023/11/27 11:11:27;;;;;;;4.85;2.72;;;;;;;6.11;100.00;99627.16;5073851;28;20083;-42
2023/11/27 11:13:57;;;;;;;5.13;2.92;;;;;;;6.13;100.00;99619.97;5073730;28;20489;-42
2023/11/27 11:16:31;;;;;;;5.03;2.78;;;;;;;6.07;100.00;99608.84;5073720;28;20482;-41
2023/11/27 11:19:07;;;;;;;5.18;2.50;;;;;;;6.08;100.00;99606.13;5073583;28;20091;-42
2023/11/27 11:21:50;;;;;;;4.05;2.53;;;;;;;6.07;100.00;99596.44;5073661;28;20132;-42
2023/11/27 11:24:26;;;;;;;4.13;2.30;;;;;;;6.19;100.00;99593.19;5073138;28;20139;-42
2023/11/27 11:27:07;;;;;;;5.05;2.50;;;;;;;6.21;100.00;99591.31;5073204;28;20101;-42
2023/11/27 11:29:43;;;;;;;4.13;2.33;;;;;;;6.18;100.00;99590.63;5073285;28;20056;-42
2023/11/27 11:32:16;;;;;;;4.00;2.30;;;;;;;6.24;100.00;99591.13;5073470;28;20290;-43
2023/11/27 11:34:50;;;;;;;5.00;2.60;;;;;;;6.32;100.00;99583.66;5073451;28;20048;-42
2023/11/27 11:37:20;;;;;;;6.05;2.50;;;;;;;6.39;100.00;99583.31;5073183;28;20094;-41
2023/11/27 11:39:53;;;;;;;6.15;2.80;;;;;;;6.37;100.00;99575.47;5073311;28;20162;-42
2023/11/27 11:42:26;;;;;;;5.18;2.95;;;;;;;6.21;100.00;99570.13;5073082;28;20402;-42
2023/11/27 11:45:16;;;;;;;5.25;2.92;;;;;;;6.29;100.00;99557.34;5073466;28;20082;-45